createdAt,value
2019-01-21T00:00:42.743Z,79.70
2019-01-21T00:03:14.272Z,79.80
2019-01-21T00:05:37.605Z,79.60
2019-01-21T00:08:04.225Z,79.60
2019-01-21T00:10:30.404Z,79.60
2019-01-21T00:12:56.677Z,79.80
2019-01-21T00:15:22.969Z,79.80
2019-01-21T00:17:49.288Z,79.90
2019-01-21T00:20:15.812Z,80.00
2019-01-21T00:22:41.987Z,80.20
2019-01-21T00:25:08.282Z,80.40
2019-01-21T00:27:34.452Z,80.30
2019-01-21T00:30:00.619Z,80.40
2019-01-21T00:32:26.906Z,80.20
2019-01-21T00:34:53.105Z,80.20
2019-01-21T00:37:19.266Z,80.40
2019-01-21T00:39:45.455Z,80.40
2019-01-21T00:42:11.641Z,80.50
2019-01-21T00:44:37.848Z,80.40
2019-01-21T00:47:03.999Z,80.50
2019-01-21T00:49:30.531Z,80.70
2019-01-21T00:51:56.749Z,80.80
2019-01-21T00:54:23.005Z,80.70
2019-01-21T00:56:49.433Z,80.60
2019-01-21T00:59:15.890Z,80.70
2019-01-21T01:01:42.068Z,80.20
2019-01-21T01:04:08.229Z,80.90
2019-01-21T01:06:34.423Z,80.90
2019-01-21T01:09:00.602Z,81.00
2019-01-21T01:11:26.782Z,81.00
2019-01-21T01:13:53.017Z,81.00
2019-01-21T01:16:19.210Z,80.90
2019-01-21T01:18:45.467Z,80.90
2019-01-21T01:21:11.676Z,81.50
2019-01-21T01:23:37.848Z,80.80
2019-01-21T01:26:04.052Z,80.70
2019-01-21T01:28:30.232Z,80.70
2019-01-21T01:30:56.424Z,80.80
2019-01-21T01:33:22.618Z,80.80
2019-01-21T01:35:48.834Z,80.80
2019-01-21T01:38:14.988Z,80.80
2019-01-21T01:40:41.154Z,80.80
2019-01-21T01:43:07.695Z,80.80
2019-01-21T01:45:34.697Z,80.80
2019-01-21T01:48:01.275Z,80.20
2019-01-21T01:50:27.547Z,80.60
2019-01-21T01:52:53.757Z,80.50
2019-01-21T01:55:22.184Z,80.40
2019-01-21T01:57:52.562Z,80.50
2019-01-21T02:00:19.196Z,80.50
2019-01-21T02:02:45.378Z,80.60
2019-01-21T02:05:12.065Z,80.70
2019-01-21T02:07:38.368Z,80.70
2019-01-21T02:10:12.159Z,80.60
2019-01-21T02:12:38.478Z,80.50
2019-01-21T02:15:09.752Z,80.50
2019-01-21T02:17:35.993Z,80.60
2019-01-21T02:20:07.353Z,80.50
2019-01-21T02:22:35.359Z,80.40
2019-01-21T02:25:31.318Z,80.40
2019-01-21T02:28:06.045Z,80.30
2019-01-21T02:30:40.937Z,80.30
2019-01-21T02:33:34.187Z,80.40
2019-01-21T02:36:08.841Z,80.30
2019-01-21T02:38:49.761Z,80.40
2019-01-21T02:41:24.588Z,80.60
2019-01-21T02:44:10.122Z,80.60
2019-01-21T02:46:57.111Z,80.60
2019-01-21T02:49:50.477Z,80.50
2019-01-21T02:52:47.826Z,80.40
2019-01-21T02:55:47.375Z,80.40
2019-01-21T02:58:38.876Z,80.40
2019-01-21T03:01:36.436Z,80.30
2019-01-21T03:04:33.983Z,80.40
2019-01-21T03:07:22.595Z,80.40
2019-01-21T03:10:09.484Z,80.50
2019-01-21T03:12:52.691Z,80.50
2019-01-21T03:15:33.535Z,80.70
2019-01-21T03:18:40.559Z,80.60
2019-01-21T03:21:34.772Z,80.80
2019-01-21T03:24:28.167Z,80.90
2019-01-21T03:27:34.954Z,80.90
2019-01-21T03:30:24.610Z,81.10
2019-01-21T03:33:11.246Z,81.10
2019-01-21T03:36:03.854Z,81.30
2019-01-21T03:38:50.434Z,81.40
2019-01-21T03:41:26.161Z,81.50
2019-01-21T03:44:19.368Z,81.50
2019-01-21T03:47:12.686Z,82.40
2019-01-21T03:50:04.388Z,81.90
2019-01-21T03:53:20.412Z,81.90
2019-01-21T03:55:52.770Z,82.00
2019-01-21T03:58:47.444Z,82.00
2019-01-21T04:01:55.989Z,82.00
2019-01-21T04:04:47.009Z,81.90
2019-01-21T04:07:19.280Z,81.90
2019-01-21T04:10:14.594Z,81.90
2019-01-21T04:12:55.314Z,82.00
2019-01-21T04:15:44.645Z,82.00
2019-01-21T04:18:40.542Z,81.80
2019-01-21T04:21:15.354Z,81.80
2019-01-21T04:24:08.230Z,82.00
2019-01-21T04:26:58.014Z,82.00
2019-01-21T04:30:05.404Z,81.90
2019-01-21T04:33:10.733Z,81.80
2019-01-21T04:35:58.202Z,81.80
2019-01-21T04:39:11.827Z,81.90
2019-01-21T04:42:11.314Z,81.80
2019-01-21T04:45:16.650Z,81.80
2019-01-21T04:48:06.217Z,81.90
2019-01-21T04:50:38.436Z,81.90
2019-01-21T04:53:28.783Z,82.00
2019-01-21T04:56:21.174Z,82.10
2019-01-21T04:59:10.415Z,82.20
2019-01-21T05:02:00.708Z,82.40
2019-01-21T05:04:47.980Z,82.50
2019-01-21T05:07:51.988Z,82.60
2019-01-21T05:10:48.010Z,82.70
2019-01-21T05:13:37.769Z,82.90
2019-01-21T05:16:27.651Z,83.10
2019-01-21T05:19:17.386Z,83.40
2019-01-21T05:21:57.913Z,83.60
2019-01-21T05:24:32.642Z,83.90
2019-01-21T05:27:07.479Z,84.10
2019-01-21T05:29:56.169Z,84.30
2019-01-21T05:32:45.789Z,84.70
2019-01-21T05:35:34.436Z,84.60
2019-01-21T05:38:20.651Z,84.70
2019-01-21T05:41:00.864Z,84.80
2019-01-21T05:43:56.145Z,84.90
2019-01-21T05:46:36.342Z,84.90
2019-01-21T05:49:20.454Z,84.90
2019-01-21T05:52:08.036Z,85.00
2019-01-21T05:55:09.401Z,84.90
2019-01-21T05:58:07.610Z,85.00
2019-01-21T06:00:39.674Z,85.00
2019-01-21T06:03:48.796Z,84.80
2019-01-21T06:06:35.136Z,84.80
2019-01-21T06:09:15.042Z,84.60
2019-01-21T06:12:01.058Z,84.40
2019-01-21T06:14:56.917Z,84.20
2019-01-21T06:17:40.927Z,84.00
2019-01-21T06:21:01.932Z,83.80
2019-01-21T06:23:51.473Z,83.70
2019-01-21T06:26:26.642Z,83.70
2019-01-21T06:29:13.387Z,83.70
2019-01-21T06:32:11.115Z,83.70
2019-01-21T06:35:00.803Z,83.40
2019-01-21T06:37:47.266Z,83.30
2019-01-21T06:40:27.560Z,82.90
2019-01-21T06:43:05.094Z,82.80
2019-01-21T06:46:23.132Z,82.50
2019-01-21T06:49:07.604Z,82.20
2019-01-21T06:52:06.490Z,82.00
2019-01-21T06:54:55.118Z,81.70
2019-01-21T06:57:47.683Z,81.50
2019-01-21T07:00:37.397Z,81.40
2019-01-21T07:03:12.056Z,81.30
2019-01-21T07:05:55.524Z,81.10
2019-01-21T07:08:51.418Z,81.10
2019-01-21T07:11:49.557Z,81.00
2019-01-21T07:14:47.561Z,81.10
2019-01-21T07:17:34.897Z,81.20
2019-01-21T07:20:14.412Z,81.30
2019-01-21T07:22:55.013Z,81.40
2019-01-21T07:25:37.886Z,81.50
2019-01-21T07:28:18.707Z,81.60
2019-01-21T07:30:53.500Z,81.70
2019-01-21T07:34:09.862Z,82.00
2019-01-21T07:36:44.753Z,82.00
2019-01-21T07:39:37.940Z,82.10
2019-01-21T07:42:21.734Z,82.40
2019-01-21T07:45:29.079Z,82.50
2019-01-21T07:48:18.500Z,82.60
2019-01-21T07:51:17.208Z,82.80
2019-01-21T07:53:57.615Z,83.00
2019-01-21T07:57:06.936Z,83.20
2019-01-21T07:59:59.347Z,83.40
2019-01-21T08:02:37.759Z,83.60
2019-01-21T08:05:31.026Z,83.80
2019-01-21T08:08:18.655Z,84.00
2019-01-21T08:11:02.173Z,84.10
2019-01-21T08:14:05.641Z,84.30
2019-01-21T08:17:04.429Z,84.40
2019-01-21T08:19:54.217Z,84.50
2019-01-21T08:23:02.066Z,84.60
2019-01-21T08:25:51.824Z,84.60
2019-01-21T08:28:49.068Z,84.60
2019-01-21T08:31:37.806Z,84.70
2019-01-21T08:34:14.655Z,84.70
2019-01-21T08:36:58.883Z,84.70
2019-01-21T08:39:55.139Z,84.60
2019-01-21T08:42:51.301Z,84.60
2019-01-21T08:45:47.680Z,84.70
2019-01-21T08:48:23.166Z,84.90
2019-01-21T08:51:07.116Z,85.20
2019-01-21T08:54:04.731Z,85.40
2019-01-21T08:56:45.498Z,85.40
2019-01-21T08:59:29.291Z,85.40
2019-01-21T09:02:06.306Z,85.30
2019-01-21T09:04:48.568Z,85.20
2019-01-21T09:07:38.430Z,85.00
2019-01-21T09:10:44.683Z,84.80
2019-01-21T09:13:22.114Z,84.70
2019-01-21T09:15:56.798Z,84.80
2019-01-21T09:18:34.233Z,85.00
2019-01-21T09:21:25.986Z,84.90
2019-01-21T09:24:17.316Z,85.00
2019-01-21T09:27:16.115Z,85.00
2019-01-21T09:29:51.069Z,85.00
2019-01-21T09:32:45.675Z,85.10
2019-01-21T09:35:29.889Z,85.20
2019-01-21T09:38:19.220Z,85.30
2019-01-21T09:41:05.925Z,85.40
2019-01-21T09:43:37.856Z,85.40
2019-01-21T09:46:24.694Z,85.40
2019-01-21T09:48:50.741Z,85.60
2019-01-21T09:51:18.344Z,85.50
2019-01-21T09:53:49.065Z,85.50
2019-01-21T09:56:15.223Z,85.80
2019-01-21T09:58:43.056Z,85.40
2019-01-21T10:01:09.458Z,85.40
2019-01-21T10:03:35.974Z,85.30
2019-01-21T10:06:05.623Z,85.40
2019-01-21T10:08:43.794Z,85.60
2019-01-21T10:11:41.335Z,85.80
2019-01-21T10:14:22.428Z,86.10
2019-01-21T10:17:13.961Z,86.10
2019-01-21T10:20:00.695Z,86.40
2019-01-21T10:22:53.132Z,87.40
2019-01-21T10:25:39.873Z,89.20
2019-01-21T10:28:28.743Z,90.40
2019-01-21T10:31:18.586Z,91.10
2019-01-21T10:34:22.157Z,91.60
2019-01-21T10:37:21.704Z,91.80
2019-01-21T10:40:25.460Z,91.90
2019-01-21T10:43:08.801Z,91.90
2019-01-21T10:45:45.886Z,91.80
2019-01-21T10:48:30.139Z,91.60
2019-01-21T10:51:19.393Z,91.30
2019-01-21T10:54:16.557Z,90.90
2019-01-21T10:56:48.692Z,90.60
2019-01-21T10:59:47.722Z,90.50
2019-01-21T11:02:52.077Z,88.60
2019-01-21T11:05:42.640Z,87.20
2019-01-21T11:08:36.006Z,86.60
2019-01-21T11:11:14.930Z,85.40
2019-01-21T11:14:05.075Z,84.50
2019-01-21T11:16:42.955Z,82.10
2019-01-21T11:19:26.181Z,80.50
2019-01-21T11:21:58.158Z,79.30
2019-01-21T11:24:33.044Z,78.20
2019-01-21T11:27:31.972Z,77.90
2019-01-21T11:30:30.693Z,76.90
2019-01-21T11:33:22.272Z,77.00
2019-01-21T11:36:12.472Z,77.10
2019-01-21T11:38:53.370Z,78.40
2019-01-21T11:41:46.530Z,78.60
2019-01-21T11:44:27.536Z,78.30
2019-01-21T11:47:08.944Z,78.50
2019-01-21T11:50:15.385Z,78.00
2019-01-21T11:52:56.119Z,77.70
2019-01-21T11:55:43.122Z,78.10
2019-01-21T11:58:35.955Z,77.00
2019-01-21T12:01:32.125Z,76.30
2019-01-21T12:04:18.860Z,75.30
2019-01-21T12:07:00.102Z,74.10
2019-01-21T12:09:50.533Z,73.60
2019-01-21T12:12:22.693Z,74.70
2019-01-21T12:15:00.639Z,74.50
2019-01-21T12:18:02.021Z,74.80
2019-01-21T12:20:42.692Z,74.90
2019-01-21T12:23:32.184Z,75.20
2019-01-21T12:26:22.187Z,74.50
2019-01-21T12:28:59.509Z,73.80
2019-01-21T12:31:43.521Z,73.80
2019-01-21T12:34:41.676Z,73.90
2019-01-21T12:37:16.398Z,73.80
2019-01-21T12:39:54.449Z,73.70
2019-01-21T12:42:26.351Z,73.70
2019-01-21T12:45:17.668Z,73.80
2019-01-21T12:47:52.844Z,73.20
2019-01-21T12:51:01.647Z,73.00
2019-01-21T12:53:57.481Z,73.50
2019-01-21T12:56:44.217Z,72.60
2019-01-21T12:59:42.774Z,72.80
2019-01-21T13:02:20.573Z,72.40
2019-01-21T13:04:52.526Z,71.50
2019-01-21T13:07:30.239Z,70.40
2019-01-21T13:10:04.804Z,69.40
2019-01-21T13:13:09.966Z,69.40
2019-01-21T13:15:48.109Z,69.50
2019-01-21T13:18:49.213Z,70.20
2019-01-21T13:21:24.029Z,70.20
2019-01-21T13:24:01.766Z,70.50
2019-01-21T13:26:51.059Z,70.80
2019-01-21T13:29:25.974Z,71.20
2019-01-21T13:32:30.709Z,71.40
2019-01-21T13:35:05.312Z,71.30
2019-01-21T13:37:46.413Z,71.60
2019-01-21T13:40:33.380Z,71.40
2019-01-21T13:43:32.025Z,70.70
2019-01-21T13:46:29.606Z,70.50
2019-01-21T13:49:16.620Z,70.90
2019-01-21T13:51:51.574Z,71.40
2019-01-21T13:55:01.155Z,72.30
2019-01-21T13:57:48.102Z,72.30
2019-01-21T14:00:43.442Z,72.10
2019-01-21T14:03:18.391Z,71.50
2019-01-21T14:06:10.465Z,71.30
2019-01-21T14:09:12.766Z,70.90
2019-01-21T14:11:59.677Z,70.40
2019-01-21T14:14:37.065Z,70.40
2019-01-21T14:17:18.073Z,69.60
2019-01-21T14:19:56.109Z,69.50
2019-01-21T14:22:40.636Z,69.90
2019-01-21T14:25:21.104Z,70.60
2019-01-21T14:27:58.977Z,71.20
2019-01-21T14:31:12.450Z,71.90
2019-01-21T14:34:05.289Z,71.80
2019-01-21T14:37:04.663Z,72.00
2019-01-21T14:39:48.435Z,72.40
2019-01-21T14:42:57.124Z,72.80
2019-01-21T14:45:42.921Z,73.30
2019-01-21T14:48:40.779Z,73.80
2019-01-21T14:51:36.415Z,74.40
2019-01-21T14:54:20.599Z,74.80
2019-01-21T14:57:25.161Z,75.10
2019-01-21T15:00:11.818Z,76.30
2019-01-21T15:03:00.368Z,75.50
2019-01-21T15:06:00.967Z,75.70
2019-01-21T15:08:35.416Z,75.80
2019-01-21T15:11:31.411Z,76.00
2019-01-21T15:14:12.350Z,76.00
2019-01-21T15:16:56.431Z,75.90
2019-01-21T15:19:28.258Z,75.90
2019-01-21T15:22:12.188Z,75.80
2019-01-21T15:25:01.912Z,75.80
2019-01-21T15:27:52.481Z,75.80
2019-01-21T15:30:29.418Z,75.80
2019-01-21T15:33:12.739Z,76.00
2019-01-21T15:36:14.252Z,76.80
2019-01-21T15:39:00.711Z,76.20
2019-01-21T15:41:38.301Z,76.50
2019-01-21T15:44:12.940Z,76.80
2019-01-21T15:47:08.502Z,77.70
2019-01-21T15:50:01.041Z,77.30
2019-01-21T15:52:38.817Z,77.40
2019-01-21T15:55:21.782Z,77.40
2019-01-21T15:57:56.667Z,77.40
2019-01-21T16:00:51.007Z,77.50
2019-01-21T16:03:31.203Z,77.40
2019-01-21T16:06:39.018Z,77.40
2019-01-21T16:09:45.547Z,77.30
2019-01-21T16:12:35.326Z,77.20
2019-01-21T16:15:30.070Z,77.20
2019-01-21T16:18:24.572Z,77.40
2019-01-21T16:21:19.254Z,77.60
2019-01-21T16:24:28.930Z,77.70
2019-01-21T16:27:22.984Z,78.00
2019-01-21T16:30:18.092Z,78.20
2019-01-21T16:32:50.024Z,78.30
2019-01-21T16:35:32.935Z,78.70
2019-01-21T16:38:07.787Z,78.70
2019-01-21T16:41:11.400Z,78.80
2019-01-21T16:43:37.731Z,78.70
2019-01-21T16:46:04.240Z,78.60
2019-01-21T16:48:30.748Z,78.50
2019-01-21T16:50:57.282Z,78.70
2019-01-21T16:53:23.495Z,78.40
2019-01-21T16:55:49.694Z,78.40
2019-01-21T16:58:15.935Z,78.30
2019-01-21T17:00:42.518Z,78.30
2019-01-21T17:03:08.700Z,78.40
2019-01-21T17:05:34.889Z,78.30
2019-01-21T17:08:01.576Z,78.50
2019-01-21T17:10:27.909Z,78.70
2019-01-21T17:12:56.969Z,78.70
2019-01-21T17:15:23.180Z,78.60
2019-01-21T17:17:49.503Z,78.60
2019-01-21T17:20:19.919Z,78.70
2019-01-21T17:22:46.504Z,78.70
2019-01-21T17:25:12.993Z,78.60
2019-01-21T17:27:39.412Z,78.70
2019-01-21T17:30:11.037Z,78.70
2019-01-21T17:32:37.251Z,78.60
2019-01-21T17:35:07.208Z,78.70
2019-01-21T17:37:33.410Z,78.20
2019-01-21T17:39:59.609Z,79.00
2019-01-21T17:42:27.446Z,79.00
2019-01-21T17:44:53.637Z,78.90
2019-01-21T17:47:19.996Z,79.10
2019-01-21T17:49:46.695Z,79.20
2019-01-21T17:52:13.314Z,79.10
2019-01-21T17:54:39.890Z,79.20
2019-01-21T17:57:06.486Z,79.30
2019-01-21T17:59:32.726Z,79.30
2019-01-21T18:01:58.925Z,79.40
2019-01-21T18:04:25.686Z,79.40
2019-01-21T18:06:51.876Z,79.40
2019-01-21T18:09:18.049Z,79.40
2019-01-21T18:11:44.274Z,79.50
2019-01-21T18:14:10.584Z,79.40
2019-01-21T18:16:37.077Z,79.60
2019-01-21T18:19:08.382Z,79.60
2019-01-21T18:21:40.087Z,79.70
2019-01-21T18:24:03.266Z,80.10
2019-01-21T18:26:31.132Z,79.70
2019-01-21T18:28:57.461Z,79.60
2019-01-21T18:31:24.130Z,79.80
2019-01-21T18:33:50.864Z,79.70
2019-01-21T18:36:17.020Z,79.70
2019-01-21T18:38:44.270Z,79.70
2019-01-21T18:41:10.533Z,79.80
2019-01-21T18:43:37.209Z,79.90
2019-01-21T18:46:06.239Z,80.00
2019-01-21T18:48:33.707Z,80.10
2019-01-21T18:51:06.091Z,80.10
2019-01-21T18:53:34.525Z,80.20
2019-01-21T18:56:09.303Z,80.30
2019-01-21T18:58:38.246Z,80.40
2019-01-21T19:01:04.424Z,80.30
2019-01-21T19:03:31.809Z,80.30
2019-01-21T19:05:58.541Z,80.20
2019-01-21T19:08:24.910Z,80.20
2019-01-21T19:10:55.073Z,80.10
2019-01-21T19:13:24.337Z,80.20
2019-01-21T19:15:50.756Z,80.10
2019-01-21T19:18:20.019Z,80.10
2019-01-21T19:20:51.661Z,80.00
2019-01-21T19:23:18.329Z,80.00
2019-01-21T19:25:44.653Z,80.10
2019-01-21T19:28:10.948Z,80.20
2019-01-21T19:30:37.521Z,80.20
2019-01-21T19:33:03.884Z,80.20
2019-01-21T19:35:33.582Z,80.40
2019-01-21T19:37:59.985Z,80.50
2019-01-21T19:40:26.635Z,80.50
2019-01-21T19:42:52.871Z,80.70
2019-01-21T19:45:19.391Z,80.70
2019-01-21T19:47:50.115Z,80.60
2019-01-21T19:50:23.995Z,80.60
2019-01-21T19:52:53.848Z,80.60
2019-01-21T19:55:36.400Z,80.60
2019-01-21T19:58:06.471Z,80.50
2019-01-21T20:00:33.201Z,80.60
2019-01-21T20:03:02.108Z,80.50
2019-01-21T20:05:29.102Z,80.50
2019-01-21T20:07:58.010Z,80.60
2019-01-21T20:10:29.114Z,80.60
2019-01-21T20:12:55.438Z,80.50
2019-01-21T20:15:21.784Z,80.40
2019-01-21T20:17:52.810Z,80.40
2019-01-21T20:20:32.069Z,80.60
2019-01-21T20:22:58.311Z,80.50
2019-01-21T20:25:28.046Z,80.50
2019-01-21T20:27:55.652Z,80.50
2019-01-21T20:30:23.724Z,80.40
2019-01-21T20:32:49.953Z,80.40
2019-01-21T20:35:17.359Z,80.40
2019-01-21T20:37:43.772Z,80.40
2019-01-21T20:40:23.737Z,80.60
2019-01-21T20:42:50.038Z,80.60
2019-01-21T20:45:18.685Z,80.60
2019-01-21T20:47:45.379Z,80.70
2019-01-21T20:50:21.898Z,80.70
2019-01-21T20:52:49.852Z,80.90
2019-01-21T20:55:17.200Z,81.20
2019-01-21T20:57:43.561Z,81.30
2019-01-21T21:00:17.199Z,81.50
2019-01-21T21:02:43.418Z,81.50
2019-01-21T21:05:09.979Z,82.00
2019-01-21T21:07:36.167Z,82.00
2019-01-21T21:10:07.016Z,82.10
2019-01-21T21:12:33.600Z,82.30
2019-01-21T21:14:59.790Z,82.00
2019-01-21T21:17:26.097Z,82.20
2019-01-21T21:19:52.248Z,82.10
2019-01-21T21:22:21.081Z,82.10
2019-01-21T21:24:46.516Z,82.10
2019-01-21T21:27:12.791Z,82.10
2019-01-21T21:29:39.283Z,82.00
2019-01-21T21:32:05.493Z,81.90
2019-01-21T21:34:31.723Z,81.70
2019-01-21T21:36:58.035Z,81.60
2019-01-21T21:39:24.293Z,81.40
2019-01-21T21:41:50.511Z,81.20
2019-01-21T21:44:16.712Z,81.00
2019-01-21T21:46:43.820Z,80.90
2019-01-21T21:49:10.068Z,80.70
2019-01-21T21:51:36.306Z,80.80
2019-01-21T21:54:02.868Z,81.00
2019-01-21T21:56:30.090Z,81.10
2019-01-21T21:58:56.249Z,81.10
2019-01-21T22:01:23.970Z,81.30
2019-01-21T22:03:50.404Z,81.40
2019-01-21T22:06:16.623Z,81.60
2019-01-21T22:08:42.803Z,81.40
2019-01-21T22:11:09.018Z,81.60
2019-01-21T22:13:35.298Z,82.10
2019-01-21T22:16:01.552Z,81.60
2019-01-21T22:18:28.185Z,81.80
2019-01-21T22:20:54.384Z,81.80
2019-01-21T22:23:20.604Z,81.80
2019-01-21T22:25:46.766Z,82.00
2019-01-21T22:28:13.016Z,81.90
2019-01-21T22:30:39.622Z,81.90
2019-01-21T22:33:05.900Z,82.00
2019-01-21T22:35:32.069Z,82.00
2019-01-21T22:37:58.378Z,81.90
2019-01-21T22:40:24.643Z,81.90
2019-01-21T22:42:51.050Z,81.90
2019-01-21T22:45:18.505Z,81.80
2019-01-21T22:47:44.874Z,81.70
2019-01-21T22:50:14.031Z,81.70
2019-01-21T22:52:41.989Z,81.70
2019-01-21T22:55:10.883Z,81.70
2019-01-21T22:57:37.103Z,81.60
2019-01-21T23:00:20.481Z,81.50
2019-01-21T23:02:46.703Z,81.40
2019-01-21T23:05:12.982Z,81.40
2019-01-21T23:07:39.217Z,81.50
2019-01-21T23:10:06.990Z,81.30
2019-01-21T23:12:33.179Z,81.20
2019-01-21T23:14:59.350Z,81.10
2019-01-21T23:17:25.781Z,81.20
2019-01-21T23:19:51.937Z,81.50
2019-01-21T23:22:18.115Z,81.00
2019-01-21T23:24:44.311Z,80.90
2019-01-21T23:27:10.643Z,80.90
2019-01-21T23:29:36.792Z,80.90
2019-01-21T23:32:03.148Z,81.00
2019-01-21T23:34:29.463Z,81.20
2019-01-21T23:36:55.677Z,81.40
2019-01-21T23:39:21.921Z,81.40
2019-01-21T23:41:48.128Z,81.50
2019-01-21T23:44:14.528Z,81.40
2019-01-21T23:46:40.707Z,81.30
2019-01-21T23:49:07.027Z,81.50
2019-01-21T23:51:33.185Z,81.40
2019-01-21T23:53:59.392Z,81.30
2019-01-21T23:56:25.551Z,82.00
2019-01-21T23:58:51.786Z,81.20
